sensor_id;sensor_type;location;lat;lon;timestamp;P1;durP1;ratioP1;P2;durP2;ratioP2
52106;SDS011;38105;52.968;5.974;2023-01-28T00:02:03;8.35;;;7.38;;
52106;SDS011;38105;52.968;5.974;2023-01-28T00:04:28;8.35;;;7.53;;
52106;SDS011;38105;52.968;5.974;2023-01-28T00:06:54;8.40;;;7.60;;
52106;SDS011;38105;52.968;5.974;2023-01-28T00:09:20;8.18;;;7.35;;
52106;SDS011;38105;52.968;5.974;2023-01-28T00:11:45;7.65;;;6.95;;
52106;SDS011;38105;52.968;5.974;2023-01-28T00:14:11;7.95;;;7.25;;
52106;SDS011;38105;52.968;5.974;2023-01-28T00:16:37;8.25;;;7.55;;
52106;SDS011;38105;52.968;5.974;2023-01-28T00:19:03;8.65;;;7.50;;
52106;SDS011;38105;52.968;5.974;2023-01-28T00:21:28;7.75;;;7.05;;
52106;SDS011;38105;52.968;5.974;2023-01-28T00:23:54;9.77;;;7.72;;
52106;SDS011;38105;52.968;5.974;2023-01-28T00:26:21;9.27;;;8.32;;
52106;SDS011;38105;52.968;5.974;2023-01-28T00:28:49;8.52;;;7.72;;
52106;SDS011;38105;52.968;5.974;2023-01-28T00:31:19;7.72;;;6.90;;
52106;SDS011;38105;52.968;5.974;2023-01-28T00:33:47;8.05;;;7.35;;
52106;SDS011;38105;52.968;5.974;2023-01-28T00:36:14;7.45;;;6.68;;
52106;SDS011;38105;52.968;5.974;2023-01-28T00:38:41;7.20;;;6.47;;
52106;SDS011;38105;52.968;5.974;2023-01-28T00:41:07;9.20;;;7.10;;
52106;SDS011;38105;52.968;5.974;2023-01-28T00:43:37;7.65;;;6.90;;
52106;SDS011;38105;52.968;5.974;2023-01-28T00:46:04;8.52;;;7.70;;
52106;SDS011;38105;52.968;5.974;2023-01-28T00:48:31;7.95;;;6.47;;
52106;SDS011;38105;52.968;5.974;2023-01-28T00:50:58;8.15;;;7.35;;
52106;SDS011;38105;52.968;5.974;2023-01-28T00:53:23;7.95;;;7.25;;
52106;SDS011;38105;52.968;5.974;2023-01-28T00:55:49;7.35;;;6.68;;
52106;SDS011;38105;52.968;5.974;2023-01-28T00:58:15;8.48;;;7.68;;
52106;SDS011;38105;52.968;5.974;2023-01-28T01:00:41;7.80;;;7.10;;
52106;SDS011;38105;52.968;5.974;2023-01-28T01:03:07;8.00;;;7.30;;
52106;SDS011;38105;52.968;5.974;2023-01-28T01:05:32;7.90;;;7.10;;
52106;SDS011;38105;52.968;5.974;2023-01-28T01:07:58;8.32;;;7.55;;
52106;SDS011;38105;52.968;5.974;2023-01-28T01:10:24;8.15;;;7.45;;
52106;SDS011;38105;52.968;5.974;2023-01-28T01:12:50;7.32;;;6.63;;
52106;SDS011;38105;52.968;5.974;2023-01-28T01:15:16;7.57;;;6.88;;
52106;SDS011;38105;52.968;5.974;2023-01-28T01:17:45;8.70;;;7.53;;
52106;SDS011;38105;52.968;5.974;2023-01-28T01:20:18;7.82;;;7.10;;
52106;SDS011;38105;52.968;5.974;2023-01-28T01:22:46;9.05;;;7.82;;
52106;SDS011;38105;52.968;5.974;2023-01-28T01:25:12;8.10;;;7.35;;
52106;SDS011;38105;52.968;5.974;2023-01-28T01:27:39;8.48;;;7.63;;
52106;SDS011;38105;52.968;5.974;2023-01-28T01:30:06;8.05;;;7.35;;
52106;SDS011;38105;52.968;5.974;2023-01-28T01:32:33;8.10;;;7.30;;
52106;SDS011;38105;52.968;5.974;2023-01-28T01:34:59;7.40;;;6.70;;
52106;SDS011;38105;52.968;5.974;2023-01-28T01:37:25;7.60;;;6.90;;
52106;SDS011;38105;52.968;5.974;2023-01-28T01:39:52;8.00;;;7.30;;
52106;SDS011;38105;52.968;5.974;2023-01-28T01:42:18;7.18;;;6.47;;
52106;SDS011;38105;52.968;5.974;2023-01-28T01:47:43;7.20;;;6.50;;
52106;SDS011;38105;52.968;5.974;2023-01-28T01:52:59;7.22;;;6.53;;
52106;SDS011;38105;52.968;5.974;2023-01-28T01:55:38;6.65;;;6.03;;
52106;SDS011;38105;52.968;5.974;2023-01-28T01:58:08;6.85;;;6.18;;
52106;SDS011;38105;52.968;5.974;2023-01-28T02:00:37;7.30;;;6.22;;
52106;SDS011;38105;52.968;5.974;2023-01-28T02:03:03;6.78;;;5.90;;
52106;SDS011;38105;52.968;5.974;2023-01-28T02:05:29;6.72;;;6.03;;
52106;SDS011;38105;52.968;5.974;2023-01-28T02:07:56;6.30;;;5.70;;
52106;SDS011;38105;52.968;5.974;2023-01-28T02:10:42;7.82;;;5.97;;
52106;SDS011;38105;52.968;5.974;2023-01-28T02:13:08;6.53;;;5.95;;
52106;SDS011;38105;52.968;5.974;2023-01-28T02:15:34;7.28;;;5.90;;
52106;SDS011;38105;52.968;5.974;2023-01-28T02:18:00;7.28;;;6.50;;
52106;SDS011;38105;52.968;5.974;2023-01-28T02:26:25;8.82;;;7.55;;
52106;SDS011;38105;52.968;5.974;2023-01-28T02:31:30;7.78;;;7.05;;
52106;SDS011;38105;52.968;5.974;2023-01-28T02:37:00;6.88;;;6.28;;
52106;SDS011;38105;52.968;5.974;2023-01-28T02:39:32;7.60;;;6.85;;
52106;SDS011;38105;52.968;5.974;2023-01-28T02:42:05;6.30;;;5.70;;
52106;SDS011;38105;52.968;5.974;2023-01-28T02:44:34;9.43;;;6.03;;
52106;SDS011;38105;52.968;5.974;2023-01-28T02:47:00;7.07;;;6.38;;
52106;SDS011;38105;52.968;5.974;2023-01-28T02:49:46;7.10;;;6.40;;
52106;SDS011;38105;52.968;5.974;2023-01-28T02:55:13;7.68;;;6.97;;
52106;SDS011;38105;52.968;5.974;2023-01-28T02:58:10;7.45;;;6.72;;
52106;SDS011;38105;52.968;5.974;2023-01-28T03:00:43;8.70;;;7.90;;
52106;SDS011;38105;52.968;5.974;2023-01-28T03:03:27;7.53;;;6.82;;
52106;SDS011;38105;52.968;5.974;2023-01-28T03:06:01;8.25;;;7.45;;
52106;SDS011;38105;52.968;5.974;2023-01-28T03:08:42;8.98;;;8.07;;
52106;SDS011;38105;52.968;5.974;2023-01-28T03:11:39;8.27;;;7.47;;
52106;SDS011;38105;52.968;5.974;2023-01-28T03:14:31;8.52;;;7.70;;
52106;SDS011;38105;52.968;5.974;2023-01-28T03:20:24;8.13;;;7.32;;
52106;SDS011;38105;52.968;5.974;2023-01-28T03:23:13;8.18;;;7.38;;
52106;SDS011;38105;52.968;5.974;2023-01-28T03:26:03;7.75;;;7.05;;
52106;SDS011;38105;52.968;5.974;2023-01-28T03:28:51;7.53;;;6.82;;
52106;SDS011;38105;52.968;5.974;2023-01-28T03:31:43;8.02;;;6.38;;
52106;SDS011;38105;52.968;5.974;2023-01-28T03:34:28;7.60;;;6.90;;
52106;SDS011;38105;52.968;5.974;2023-01-28T03:37:12;8.80;;;7.90;;
52106;SDS011;38105;52.968;5.974;2023-01-28T03:39:39;8.48;;;6.95;;
52106;SDS011;38105;52.968;5.974;2023-01-28T03:42:06;6.43;;;5.82;;
52106;SDS011;38105;52.968;5.974;2023-01-28T03:44:37;5.88;;;5.38;;
52106;SDS011;38105;52.968;5.974;2023-01-28T03:47:21;5.60;;;5.10;;
52106;SDS011;38105;52.968;5.974;2023-01-28T03:49:49;5.97;;;5.20;;
52106;SDS011;38105;52.968;5.974;2023-01-28T03:52:17;9.35;;;6.88;;
52106;SDS011;38105;52.968;5.974;2023-01-28T03:54:45;9.30;;;7.15;;
52106;SDS011;38105;52.968;5.974;2023-01-28T03:57:14;7.40;;;6.70;;
52106;SDS011;38105;52.968;5.974;2023-01-28T03:59:41;5.07;;;4.68;;
52106;SDS011;38105;52.968;5.974;2023-01-28T04:02:06;5.65;;;5.05;;
52106;SDS011;38105;52.968;5.974;2023-01-28T04:04:35;5.75;;;5.05;;
52106;SDS011;38105;52.968;5.974;2023-01-28T04:07:05;5.47;;;4.95;;
52106;SDS011;38105;52.968;5.974;2023-01-28T04:09:33;5.95;;;5.40;;
52106;SDS011;38105;52.968;5.974;2023-01-28T04:11:59;5.00;;;4.50;;
52106;SDS011;38105;52.968;5.974;2023-01-28T04:14:25;5.65;;;5.07;;
52106;SDS011;38105;52.968;5.974;2023-01-28T04:16:51;6.68;;;5.30;;
52106;SDS011;38105;52.968;5.974;2023-01-28T04:19:19;6.55;;;4.95;;
52106;SDS011;38105;52.968;5.974;2023-01-28T04:21:45;11.20;;;5.53;;
52106;SDS011;38105;52.968;5.974;2023-01-28T04:24:11;5.13;;;4.70;;
52106;SDS011;38105;52.968;5.974;2023-01-28T04:26:37;6.43;;;5.03;;
52106;SDS011;38105;52.968;5.974;2023-01-28T04:29:03;6.47;;;4.88;;
52106;SDS011;38105;52.968;5.974;2023-01-28T04:31:30;5.78;;;5.18;;
52106;SDS011;38105;52.968;5.974;2023-01-28T04:33:56;6.10;;;5.47;;
52106;SDS011;38105;52.968;5.974;2023-01-28T04:36:22;4.93;;;4.50;;
52106;SDS011;38105;52.968;5.974;2023-01-28T04:38:48;5.68;;;4.97;;
52106;SDS011;38105;52.968;5.974;2023-01-28T04:41:13;4.13;;;3.72;;
52106;SDS011;38105;52.968;5.974;2023-01-28T04:43:39;4.28;;;3.88;;
52106;SDS011;38105;52.968;5.974;2023-01-28T04:46:05;4.50;;;3.92;;
52106;SDS011;38105;52.968;5.974;2023-01-28T04:48:31;5.00;;;4.00;;
52106;SDS011;38105;52.968;5.974;2023-01-28T04:50:57;5.43;;;3.30;;
52106;SDS011;38105;52.968;5.974;2023-01-28T04:53:22;5.18;;;3.85;;
52106;SDS011;38105;52.968;5.974;2023-01-28T04:55:48;5.40;;;3.90;;
52106;SDS011;38105;52.968;5.974;2023-01-28T04:58:13;3.97;;;3.67;;
52106;SDS011;38105;52.968;5.974;2023-01-28T05:00:39;3.83;;;3.50;;
52106;SDS011;38105;52.968;5.974;2023-01-28T05:03:05;4.00;;;3.58;;
52106;SDS011;38105;52.968;5.974;2023-01-28T05:05:30;4.60;;;4.05;;
52106;SDS011;38105;52.968;5.974;2023-01-28T05:07:56;5.10;;;4.00;;
52106;SDS011;38105;52.968;5.974;2023-01-28T05:10:23;4.50;;;4.10;;
52106;SDS011;38105;52.968;5.974;2023-01-28T05:12:50;4.53;;;4.13;;
52106;SDS011;38105;52.968;5.974;2023-01-28T05:15:16;5.45;;;4.05;;
52106;SDS011;38105;52.968;5.974;2023-01-28T05:17:43;4.82;;;4.35;;
52106;SDS011;38105;52.968;5.974;2023-01-28T05:20:09;5.95;;;4.53;;
52106;SDS011;38105;52.968;5.974;2023-01-28T05:22:36;5.30;;;4.80;;
52106;SDS011;38105;52.968;5.974;2023-01-28T05:25:03;5.20;;;4.57;;
52106;SDS011;38105;52.968;5.974;2023-01-28T05:27:30;5.90;;;4.38;;
52106;SDS011;38105;52.968;5.974;2023-01-28T05:29:56;8.20;;;5.18;;
52106;SDS011;38105;52.968;5.974;2023-01-28T05:32:23;5.78;;;5.28;;
52106;SDS011;38105;52.968;5.974;2023-01-28T05:34:49;5.63;;;5.13;;
52106;SDS011;38105;52.968;5.974;2023-01-28T05:37:14;6.60;;;5.10;;
52106;SDS011;38105;52.968;5.974;2023-01-28T05:39:40;6.15;;;5.55;;
52106;SDS011;38105;52.968;5.974;2023-01-28T05:42:06;7.20;;;5.72;;
52106;SDS011;38105;52.968;5.974;2023-01-28T05:44:31;6.15;;;5.45;;
52106;SDS011;38105;52.968;5.974;2023-01-28T05:46:57;8.00;;;7.30;;
52106;SDS011;38105;52.968;5.974;2023-01-28T05:49:23;6.75;;;5.47;;
52106;SDS011;38105;52.968;5.974;2023-01-28T05:51:50;6.20;;;5.60;;
52106;SDS011;38105;52.968;5.974;2023-01-28T05:54:16;6.15;;;5.55;;
52106;SDS011;38105;52.968;5.974;2023-01-28T05:56:42;7.53;;;5.18;;
52106;SDS011;38105;52.968;5.974;2023-01-28T05:59:09;5.93;;;5.38;;
52106;SDS011;38105;52.968;5.974;2023-01-28T06:01:35;8.07;;;5.50;;
52106;SDS011;38105;52.968;5.974;2023-01-28T06:04:01;5.57;;;4.97;;
52106;SDS011;38105;52.968;5.974;2023-01-28T06:06:28;6.40;;;5.18;;
52106;SDS011;38105;52.968;5.974;2023-01-28T06:08:53;7.10;;;5.70;;
52106;SDS011;38105;52.968;5.974;2023-01-28T06:11:19;6.60;;;6.00;;
52106;SDS011;38105;52.968;5.974;2023-01-28T06:13:45;7.63;;;6.20;;
52106;SDS011;38105;52.968;5.974;2023-01-28T06:16:10;7.30;;;6.60;;
52106;SDS011;38105;52.968;5.974;2023-01-28T06:18:36;7.53;;;6.40;;
52106;SDS011;38105;52.968;5.974;2023-01-28T06:21:02;6.65;;;6.03;;
52106;SDS011;38105;52.968;5.974;2023-01-28T06:23:27;7.85;;;7.00;;
52106;SDS011;38105;52.968;5.974;2023-01-28T06:25:54;8.05;;;7.35;;
52106;SDS011;38105;52.968;5.974;2023-01-28T06:28:20;9.25;;;7.18;;
52106;SDS011;38105;52.968;5.974;2023-01-28T06:30:49;9.93;;;6.85;;
52106;SDS011;38105;52.968;5.974;2023-01-28T06:33:15;8.23;;;7.07;;
52106;SDS011;38105;52.968;5.974;2023-01-28T06:35:41;8.07;;;7.05;;
52106;SDS011;38105;52.968;5.974;2023-01-28T06:38:08;8.40;;;6.45;;
52106;SDS011;38105;52.968;5.974;2023-01-28T06:40:34;7.10;;;6.25;;
52106;SDS011;38105;52.968;5.974;2023-01-28T06:43:00;8.00;;;6.90;;
52106;SDS011;38105;52.968;5.974;2023-01-28T06:45:26;7.78;;;6.55;;
52106;SDS011;38105;52.968;5.974;2023-01-28T06:47:51;7.88;;;6.80;;
52106;SDS011;38105;52.968;5.974;2023-01-28T06:50:17;7.13;;;6.40;;
52106;SDS011;38105;52.968;5.974;2023-01-28T06:52:43;7.63;;;6.85;;
52106;SDS011;38105;52.968;5.974;2023-01-28T06:55:08;9.20;;;7.35;;
52106;SDS011;38105;52.968;5.974;2023-01-28T06:57:36;9.52;;;7.28;;
52106;SDS011;38105;52.968;5.974;2023-01-28T07:00:03;8.48;;;7.68;;
52106;SDS011;38105;52.968;5.974;2023-01-28T07:02:31;8.00;;;7.30;;
52106;SDS011;38105;52.968;5.974;2023-01-28T07:04:56;9.07;;;8.18;;
52106;SDS011;38105;52.968;5.974;2023-01-28T07:07:22;9.05;;;8.15;;
52106;SDS011;38105;52.968;5.974;2023-01-28T07:09:47;11.27;;;8.65;;
52106;SDS011;38105;52.968;5.974;2023-01-28T07:12:13;8.82;;;7.93;;
52106;SDS011;38105;52.968;5.974;2023-01-28T07:14:39;10.30;;;8.45;;
52106;SDS011;38105;52.968;5.974;2023-01-28T07:17:05;9.48;;;8.35;;
52106;SDS011;38105;52.968;5.974;2023-01-28T07:19:30;9.23;;;8.07;;
52106;SDS011;38105;52.968;5.974;2023-01-28T07:21:56;9.35;;;8.45;;
52106;SDS011;38105;52.968;5.974;2023-01-28T07:24:24;11.63;;;7.85;;
52106;SDS011;38105;52.968;5.974;2023-01-28T07:26:51;9.73;;;8.77;;
52106;SDS011;38105;52.968;5.974;2023-01-28T07:29:16;10.70;;;9.02;;
52106;SDS011;38105;52.968;5.974;2023-01-28T07:31:42;9.95;;;8.95;;
52106;SDS011;38105;52.968;5.974;2023-01-28T07:34:08;10.60;;;8.85;;
52106;SDS011;38105;52.968;5.974;2023-01-28T07:36:33;9.40;;;8.32;;
52106;SDS011;38105;52.968;5.974;2023-01-28T07:38:59;10.07;;;9.00;;
52106;SDS011;38105;52.968;5.974;2023-01-28T07:41:25;10.25;;;9.25;;
52106;SDS011;38105;52.968;5.974;2023-01-28T07:43:52;12.85;;;8.80;;
52106;SDS011;38105;52.968;5.974;2023-01-28T07:46:17;10.02;;;9.02;;
52106;SDS011;38105;52.968;5.974;2023-01-28T07:48:43;11.45;;;9.50;;
52106;SDS011;38105;52.968;5.974;2023-01-28T07:51:10;9.52;;;8.63;;
52106;SDS011;38105;52.968;5.974;2023-01-28T07:53:36;9.35;;;8.43;;
52106;SDS011;38105;52.968;5.974;2023-01-28T07:56:01;9.95;;;8.95;;
52106;SDS011;38105;52.968;5.974;2023-01-28T07:58:29;9.60;;;8.70;;
52106;SDS011;38105;52.968;5.974;2023-01-28T08:00:56;10.85;;;9.55;;
52106;SDS011;38105;52.968;5.974;2023-01-28T08:03:23;11.23;;;10.13;;
52106;SDS011;38105;52.968;5.974;2023-01-28T08:05:49;11.68;;;9.85;;
52106;SDS011;38105;52.968;5.974;2023-01-28T08:08:17;12.02;;;10.13;;
52106;SDS011;38105;52.968;5.974;2023-01-28T08:10:43;10.98;;;9.90;;
52106;SDS011;38105;52.968;5.974;2023-01-28T08:13:10;10.65;;;9.55;;
52106;SDS011;38105;52.968;5.974;2023-01-28T08:15:36;12.15;;;10.15;;
52106;SDS011;38105;52.968;5.974;2023-01-28T08:18:03;10.95;;;9.85;;
52106;SDS011;38105;52.968;5.974;2023-01-28T08:20:30;11.13;;;9.40;;
52106;SDS011;38105;52.968;5.974;2023-01-28T08:23:12;10.07;;;9.18;;
52106;SDS011;38105;52.968;5.974;2023-01-28T08:25:42;9.18;;;8.27;;
52106;SDS011;38105;52.968;5.974;2023-01-28T08:28:08;9.38;;;8.45;;
52106;SDS011;38105;52.968;5.974;2023-01-28T08:30:35;8.15;;;7.43;;
52106;SDS011;38105;52.968;5.974;2023-01-28T08:33:03;9.65;;;8.32;;
52106;SDS011;38105;52.968;5.974;2023-01-28T08:35:29;8.25;;;7.45;;
52106;SDS011;38105;52.968;5.974;2023-01-28T08:37:57;7.43;;;6.20;;
52106;SDS011;38105;52.968;5.974;2023-01-28T08:40:24;7.80;;;7.07;;
52106;SDS011;38105;52.968;5.974;2023-01-28T08:42:50;7.93;;;7.20;;
52106;SDS011;38105;52.968;5.974;2023-01-28T08:45:18;7.00;;;6.40;;
52106;SDS011;38105;52.968;5.974;2023-01-28T08:50:42;6.90;;;6.10;;
52106;SDS011;38105;52.968;5.974;2023-01-28T08:53:10;5.57;;;5.15;;
52106;SDS011;38105;52.968;5.974;2023-01-28T08:55:43;6.35;;;5.75;;
52106;SDS011;38105;52.968;5.974;2023-01-28T08:58:10;6.45;;;5.85;;
52106;SDS011;38105;52.968;5.974;2023-01-28T09:00:40;7.05;;;5.80;;
52106;SDS011;38105;52.968;5.974;2023-01-28T09:03:07;6.97;;;6.38;;
52106;SDS011;38105;52.968;5.974;2023-01-28T09:05:33;6.25;;;5.75;;
52106;SDS011;38105;52.968;5.974;2023-01-28T09:08:00;7.18;;;5.82;;
52106;SDS011;38105;52.968;5.974;2023-01-28T09:10:27;7.30;;;6.60;;
52106;SDS011;38105;52.968;5.974;2023-01-28T09:12:53;7.60;;;6.78;;
52106;SDS011;38105;52.968;5.974;2023-01-28T09:15:18;6.35;;;5.75;;
52106;SDS011;38105;52.968;5.974;2023-01-28T09:17:44;6.82;;;5.95;;
52106;SDS011;38105;52.968;5.974;2023-01-28T09:20:10;6.80;;;6.20;;
52106;SDS011;38105;52.968;5.974;2023-01-28T09:22:36;6.43;;;5.85;;
52106;SDS011;38105;52.968;5.974;2023-01-28T09:25:02;7.40;;;6.80;;
52106;SDS011;38105;52.968;5.974;2023-01-28T09:27:28;7.22;;;6.60;;
52106;SDS011;38105;52.968;5.974;2023-01-28T09:29:54;7.03;;;6.32;;
52106;SDS011;38105;52.968;5.974;2023-01-28T09:32:19;7.00;;;6.40;;
52106;SDS011;38105;52.968;5.974;2023-01-28T09:34:45;7.53;;;6.82;;
52106;SDS011;38105;52.968;5.974;2023-01-28T09:37:11;7.72;;;7.03;;
52106;SDS011;38105;52.968;5.974;2023-01-28T09:39:37;7.72;;;7.20;;
52106;SDS011;38105;52.968;5.974;2023-01-28T09:45:06;7.82;;;7.13;;
52106;SDS011;38105;52.968;5.974;2023-01-28T09:47:45;7.82;;;7.13;;
52106;SDS011;38105;52.968;5.974;2023-01-28T09:50:26;8.30;;;7.50;;
52106;SDS011;38105;52.968;5.974;2023-01-28T09:53:02;8.35;;;6.82;;
52106;SDS011;38105;52.968;5.974;2023-01-28T09:55:42;6.75;;;6.15;;
52106;SDS011;38105;52.968;5.974;2023-01-28T09:58:11;6.97;;;6.20;;
52106;SDS011;38105;52.968;5.974;2023-01-28T10:14:55;7.78;;;6.45;;
52106;SDS011;38105;52.968;5.974;2023-01-28T10:17:52;7.32;;;6.63;;
52106;SDS011;38105;52.968;5.974;2023-01-28T10:20:23;10.75;;;7.55;;
52106;SDS011;38105;52.968;5.974;2023-01-28T10:25:38;6.55;;;5.95;;
52106;SDS011;38105;52.968;5.974;2023-01-28T10:28:30;10.25;;;7.22;;
52106;SDS011;38105;52.968;5.974;2023-01-28T10:30:55;6.78;;;6.18;;
52106;SDS011;38105;52.968;5.974;2023-01-28T10:35:48;7.82;;;6.60;;
52106;SDS011;38105;52.968;5.974;2023-01-28T10:38:16;7.07;;;6.38;;
52106;SDS011;38105;52.968;5.974;2023-01-28T10:40:45;6.90;;;6.13;;
52106;SDS011;38105;52.968;5.974;2023-01-28T10:43:12;8.63;;;7.72;;
52106;SDS011;38105;52.968;5.974;2023-01-28T10:45:42;9.02;;;8.23;;
52106;SDS011;38105;52.968;5.974;2023-01-28T10:48:37;9.18;;;8.27;;
52106;SDS011;38105;52.968;5.974;2023-01-28T10:51:17;8.10;;;7.30;;
52106;SDS011;38105;52.968;5.974;2023-01-28T10:53:44;7.68;;;6.50;;
52106;SDS011;38105;52.968;5.974;2023-01-28T10:56:12;7.45;;;6.75;;
52106;SDS011;38105;52.968;5.974;2023-01-28T10:58:49;8.32;;;7.40;;
52106;SDS011;38105;52.968;5.974;2023-01-28T11:01:22;7.60;;;6.88;;
52106;SDS011;38105;52.968;5.974;2023-01-28T11:03:54;7.70;;;6.68;;
52106;SDS011;38105;52.968;5.974;2023-01-28T11:06:22;7.00;;;5.93;;
52106;SDS011;38105;52.968;5.974;2023-01-28T11:08:52;6.93;;;6.10;;
52106;SDS011;38105;52.968;5.974;2023-01-28T11:11:24;6.15;;;5.60;;
52106;SDS011;38105;52.968;5.974;2023-01-28T11:16:22;6.18;;;5.50;;
52106;SDS011;38105;52.968;5.974;2023-01-28T11:18:50;5.60;;;5.10;;
52106;SDS011;38105;52.968;5.974;2023-01-28T11:21:24;5.60;;;5.05;;
52106;SDS011;38105;52.968;5.974;2023-01-28T11:24:02;6.50;;;5.60;;
52106;SDS011;38105;52.968;5.974;2023-01-28T11:26:39;5.63;;;5.07;;
52106;SDS011;38105;52.968;5.974;2023-01-28T11:29:23;9.02;;;5.72;;
52106;SDS011;38105;52.968;5.974;2023-01-28T11:31:55;10.30;;;5.80;;
52106;SDS011;38105;52.968;5.974;2023-01-28T11:34:24;6.57;;;5.85;;
52106;SDS011;38105;52.968;5.974;2023-01-28T11:36:53;6.63;;;6.03;;
52106;SDS011;38105;52.968;5.974;2023-01-28T11:39:26;7.35;;;5.95;;
52106;SDS011;38105;52.968;5.974;2023-01-28T11:41:53;7.20;;;6.50;;
52106;SDS011;38105;52.968;5.974;2023-01-28T11:44:27;7.68;;;6.22;;
52106;SDS011;38105;52.968;5.974;2023-01-28T11:47:01;7.15;;;6.45;;
52106;SDS011;38105;52.968;5.974;2023-01-28T11:55:39;8.77;;;6.53;;
52106;SDS011;38105;52.968;5.974;2023-01-28T12:09:11;9.00;;;7.45;;
52106;SDS011;38105;52.968;5.974;2023-01-28T12:12:06;7.90;;;7.20;;
52106;SDS011;38105;52.968;5.974;2023-01-28T12:25:43;7.55;;;6.75;;
52106;SDS011;38105;52.968;5.974;2023-01-28T12:42:35;7.75;;;6.15;;
52106;SDS011;38105;52.968;5.974;2023-01-28T12:45:17;7.72;;;6.70;;
52106;SDS011;38105;52.968;5.974;2023-01-28T12:47:57;9.40;;;8.40;;
52106;SDS011;38105;52.968;5.974;2023-01-28T12:50:30;9.25;;;8.35;;
52106;SDS011;38105;52.968;5.974;2023-01-28T12:53:03;9.35;;;8.45;;
52106;SDS011;38105;52.968;5.974;2023-01-28T12:55:47;8.75;;;7.85;;
52106;SDS011;38105;52.968;5.974;2023-01-28T12:58:32;11.20;;;9.32;;
52106;SDS011;38105;52.968;5.974;2023-01-28T13:01:10;12.98;;;9.30;;
52106;SDS011;38105;52.968;5.974;2023-01-28T13:03:39;11.65;;;9.18;;
52106;SDS011;38105;52.968;5.974;2023-01-28T13:06:14;10.25;;;9.15;;
52106;SDS011;38105;52.968;5.974;2023-01-28T13:08:50;9.93;;;8.40;;
52106;SDS011;38105;52.968;5.974;2023-01-28T13:11:24;11.93;;;9.77;;
52106;SDS011;38105;52.968;5.974;2023-01-28T13:13:58;10.38;;;9.38;;
52106;SDS011;38105;52.968;5.974;2023-01-28T13:16:24;12.45;;;9.57;;
52106;SDS011;38105;52.968;5.974;2023-01-28T13:18:50;12.00;;;9.80;;
52106;SDS011;38105;52.968;5.974;2023-01-28T13:23:51;10.98;;;9.20;;
52106;SDS011;38105;52.968;5.974;2023-01-28T13:26:47;11.80;;;9.80;;
52106;SDS011;38105;52.968;5.974;2023-01-28T13:29:29;10.38;;;9.32;;
52106;SDS011;38105;52.968;5.974;2023-01-28T13:31:57;10.52;;;9.43;;
52106;SDS011;38105;52.968;5.974;2023-01-28T13:34:29;10.73;;;9.45;;
52106;SDS011;38105;52.968;5.974;2023-01-28T13:36:57;12.45;;;8.93;;
52106;SDS011;38105;52.968;5.974;2023-01-28T13:39:29;14.27;;;9.27;;
52106;SDS011;38105;52.968;5.974;2023-01-28T13:42:07;11.27;;;8.93;;
52106;SDS011;38105;52.968;5.974;2023-01-28T13:44:45;9.95;;;8.50;;
52106;SDS011;38105;52.968;5.974;2023-01-28T13:47:12;10.98;;;8.52;;
52106;SDS011;38105;52.968;5.974;2023-01-28T13:49:45;9.85;;;8.75;;
52106;SDS011;38105;52.968;5.974;2023-01-28T13:52:14;10.95;;;8.68;;
52106;SDS011;38105;52.968;5.974;2023-01-28T13:54:56;8.90;;;7.88;;
52106;SDS011;38105;52.968;5.974;2023-01-28T14:03:02;10.90;;;8.45;;
52106;SDS011;38105;52.968;5.974;2023-01-28T14:17:16;9.07;;;8.18;;
52106;SDS011;38105;52.968;5.974;2023-01-28T14:19:55;12.80;;;8.05;;
52106;SDS011;38105;52.968;5.974;2023-01-28T14:22:22;10.75;;;7.72;;
52106;SDS011;38105;52.968;5.974;2023-01-28T14:24:48;8.63;;;7.72;;
52106;SDS011;38105;52.968;5.974;2023-01-28T14:27:20;9.02;;;8.10;;
52106;SDS011;38105;52.968;5.974;2023-01-28T14:30:01;8.90;;;8.00;;
52106;SDS011;38105;52.968;5.974;2023-01-28T14:32:30;13.90;;;8.05;;
52106;SDS011;38105;52.968;5.974;2023-01-28T14:34:58;13.13;;;7.93;;
52106;SDS011;38105;52.968;5.974;2023-01-28T14:37:30;11.38;;;7.90;;
52106;SDS011;38105;52.968;5.974;2023-01-28T14:39:58;10.57;;;8.25;;
52106;SDS011;38105;52.968;5.974;2023-01-28T14:42:28;10.63;;;8.40;;
52106;SDS011;38105;52.968;5.974;2023-01-28T14:45:14;11.52;;;8.30;;
52106;SDS011;38105;52.968;5.974;2023-01-28T14:56:45;11.73;;;8.43;;
52106;SDS011;38105;52.968;5.974;2023-01-28T14:59:51;12.88;;;7.72;;
52106;SDS011;38105;52.968;5.974;2023-01-28T15:02:20;10.68;;;8.73;;
52106;SDS011;38105;52.968;5.974;2023-01-28T15:04:47;12.25;;;9.48;;
52106;SDS011;38105;52.968;5.974;2023-01-28T15:07:24;12.15;;;9.07;;
52106;SDS011;38105;52.968;5.974;2023-01-28T15:10:04;11.15;;;9.30;;
52106;SDS011;38105;52.968;5.974;2023-01-28T15:12:36;9.95;;;7.65;;
52106;SDS011;38105;52.968;5.974;2023-01-28T15:15:10;13.43;;;8.60;;
52106;SDS011;38105;52.968;5.974;2023-01-28T15:17:53;10.88;;;7.97;;
52106;SDS011;38105;52.968;5.974;2023-01-28T15:20:22;10.75;;;9.05;;
52106;SDS011;38105;52.968;5.974;2023-01-28T15:22:49;9.82;;;7.53;;
52106;SDS011;38105;52.968;5.974;2023-01-28T15:25:17;13.13;;;8.50;;
52106;SDS011;38105;52.968;5.974;2023-01-28T15:27:45;10.18;;;7.70;;
52106;SDS011;38105;52.968;5.974;2023-01-28T15:30:22;10.10;;;7.53;;
52106;SDS011;38105;52.968;5.974;2023-01-28T15:32:56;8.82;;;7.93;;
52106;SDS011;38105;52.968;5.974;2023-01-28T15:35:26;9.35;;;7.72;;
52106;SDS011;38105;52.968;5.974;2023-01-28T15:37:52;9.45;;;6.45;;
52106;SDS011;38105;52.968;5.974;2023-01-28T15:40:18;6.93;;;5.47;;
52106;SDS011;38105;52.968;5.974;2023-01-28T15:42:46;8.13;;;5.35;;
52106;SDS011;38105;52.968;5.974;2023-01-28T15:45:17;8.18;;;5.75;;
52106;SDS011;38105;52.968;5.974;2023-01-28T15:47:45;6.38;;;4.75;;
52106;SDS011;38105;52.968;5.974;2023-01-28T15:50:22;8.68;;;5.82;;
52106;SDS011;38105;52.968;5.974;2023-01-28T15:52:49;10.65;;;7.07;;
52106;SDS011;38105;52.968;5.974;2023-01-28T15:55:30;7.93;;;5.38;;
52106;SDS011;38105;52.968;5.974;2023-01-28T15:58:14;8.73;;;5.80;;
52106;SDS011;38105;52.968;5.974;2023-01-28T16:00:45;7.43;;;5.10;;
52106;SDS011;38105;52.968;5.974;2023-01-28T16:03:20;8.07;;;5.60;;
52106;SDS011;38105;52.968;5.974;2023-01-28T16:05:54;9.00;;;6.00;;
52106;SDS011;38105;52.968;5.974;2023-01-28T16:11:05;9.75;;;6.05;;
52106;SDS011;38105;52.968;5.974;2023-01-28T16:13:32;8.30;;;5.00;;
52106;SDS011;38105;52.968;5.974;2023-01-28T16:15:58;6.90;;;4.95;;
52106;SDS011;38105;52.968;5.974;2023-01-28T16:18:39;8.23;;;4.82;;
52106;SDS011;38105;52.968;5.974;2023-01-28T16:21:08;9.50;;;4.72;;
52106;SDS011;38105;52.968;5.974;2023-01-28T16:23:36;8.57;;;4.80;;
52106;SDS011;38105;52.968;5.974;2023-01-28T16:26:04;6.68;;;4.60;;
52106;SDS011;38105;52.968;5.974;2023-01-28T16:28:43;14.05;;;4.90;;
52106;SDS011;38105;52.968;5.974;2023-01-28T16:31:09;6.95;;;4.93;;
52106;SDS011;38105;52.968;5.974;2023-01-28T16:33:35;6.60;;;4.78;;
52106;SDS011;38105;52.968;5.974;2023-01-28T16:36:01;7.53;;;4.70;;
52106;SDS011;38105;52.968;5.974;2023-01-28T16:38:26;7.10;;;4.60;;
52106;SDS011;38105;52.968;5.974;2023-01-28T16:40:52;6.13;;;4.93;;
52106;SDS011;38105;52.968;5.974;2023-01-28T16:43:18;8.85;;;5.18;;
52106;SDS011;38105;52.968;5.974;2023-01-28T16:45:43;10.38;;;5.05;;
52106;SDS011;38105;52.968;5.974;2023-01-28T16:48:10;7.80;;;5.38;;
52106;SDS011;38105;52.968;5.974;2023-01-28T16:50:39;7.68;;;5.55;;
52106;SDS011;38105;52.968;5.974;2023-01-28T16:53:14;11.10;;;6.25;;
52106;SDS011;38105;52.968;5.974;2023-01-28T16:55:43;10.27;;;5.47;;
52106;SDS011;38105;52.968;5.974;2023-01-28T16:58:09;8.23;;;5.60;;
52106;SDS011;38105;52.968;5.974;2023-01-28T17:00:35;10.80;;;6.03;;
52106;SDS011;38105;52.968;5.974;2023-01-28T17:03:00;8.65;;;5.80;;
52106;SDS011;38105;52.968;5.974;2023-01-28T17:05:26;10.18;;;6.13;;
52106;SDS011;38105;52.968;5.974;2023-01-28T17:07:52;8.52;;;5.95;;